ULKOZO weather

Kozojedy Airstrip
Kozojedy, Czechia

Public forecast

Using degrees Celsius for public forecast. Weather courtesy of forecast.io.

METAR (pilot weather report)

Closest report is Pardubice Airport, 23.0 nm (42.7 km) SE. Retrieved 2019/05/25 07:00 UTC (9 minutes ago):

LKPD 250700Z VRB01KT CAVOK 16/09 Q1014 NOSIG RMK BLU BLU

TAF (pilot weather forecast)

Closest forecast is Pardubice Airport, 23.0 nm (42.7 km) SE. Retrieved 2019/05/25 06:04 UTC (1 hour ago):

TAF LKPD 250500Z 2506/2606 32004KT CAVOK TEMPO 2512/2518 30008KT 7000 SHRA SCT040TCU PROB30 TEMPO 2514/2518 4000 TSRA SCT035CB BECMG 2522/2600 27004KT TEMPO 2602/2606 5000 BR